sensor_id;sensor_type;location;lat;lon;timestamp;pressure;altitude;pressure_sealevel;temperature;humidity
2675;BME280;1347;42.122;24.746;2024-02-15T00:00:40;99881.16;;;8.70;71.21
2675;BME280;1347;42.122;24.746;2024-02-15T00:03:08;99875.16;;;8.65;71.81
2675;BME280;1347;42.122;24.746;2024-02-15T00:05:39;99892.69;;;8.64;71.84
2675;BME280;1347;42.122;24.746;2024-02-15T00:08:06;99885.31;;;8.64;71.41
2675;BME280;1347;42.122;24.746;2024-02-15T00:10:35;99883.13;;;8.58;71.62
2675;BME280;1347;42.122;24.746;2024-02-15T00:13:03;99882.78;;;8.59;70.98
2675;BME280;1347;42.122;24.746;2024-02-15T00:15:31;99885.00;;;8.54;71.55
2675;BME280;1347;42.122;24.746;2024-02-15T00:17:58;99893.72;;;8.59;71.69
2675;BME280;1347;42.122;24.746;2024-02-15T00:20:25;99896.56;;;8.63;71.62
2675;BME280;1347;42.122;24.746;2024-02-15T00:22:53;99882.19;;;8.66;71.39
2675;BME280;1347;42.122;24.746;2024-02-15T00:25:21;99890.69;;;8.48;71.81
2675;BME280;1347;42.122;24.746;2024-02-15T00:27:48;99899.75;;;8.65;71.00
2675;BME280;1347;42.122;24.746;2024-02-15T00:30:16;99886.66;;;8.58;71.61
2675;BME280;1347;42.122;24.746;2024-02-15T00:32:43;99890.34;;;8.50;71.74
2675;BME280;1347;42.122;24.746;2024-02-15T00:35:11;99891.38;;;8.45;72.01
2675;BME280;1347;42.122;24.746;2024-02-15T00:37:40;99885.91;;;8.45;71.60
2675;BME280;1347;42.122;24.746;2024-02-15T00:40:08;99888.88;;;8.53;71.42
2675;BME280;1347;42.122;24.746;2024-02-15T00:42:35;99885.78;;;8.54;71.43
2675;BME280;1347;42.122;24.746;2024-02-15T00:45:02;99890.53;;;8.57;71.54
2675;BME280;1347;42.122;24.746;2024-02-15T00:47:31;99881.69;;;8.48;71.59
2675;BME280;1347;42.122;24.746;2024-02-15T00:49:58;99887.94;;;8.48;71.26
2675;BME280;1347;42.122;24.746;2024-02-15T00:52:25;99882.16;;;8.50;71.83
2675;BME280;1347;42.122;24.746;2024-02-15T00:54:52;99890.88;;;8.56;71.15
2675;BME280;1347;42.122;24.746;2024-02-15T00:57:19;99885.09;;;8.45;71.63
2675;BME280;1347;42.122;24.746;2024-02-15T00:59:45;99889.81;;;8.44;71.16
2675;BME280;1347;42.122;24.746;2024-02-15T01:02:13;99887.31;;;8.39;71.29
2675;BME280;1347;42.122;24.746;2024-02-15T01:04:41;99882.97;;;8.38;71.96
2675;BME280;1347;42.122;24.746;2024-02-15T01:07:11;99884.38;;;8.32;72.00
2675;BME280;1347;42.122;24.746;2024-02-15T01:09:37;99883.22;;;8.33;72.30
2675;BME280;1347;42.122;24.746;2024-02-15T01:12:05;99880.13;;;8.35;71.79
2675;BME280;1347;42.122;24.746;2024-02-15T01:14:31;99882.78;;;8.31;72.28
2675;BME280;1347;42.122;24.746;2024-02-15T01:16:58;99879.22;;;8.31;72.50
2675;BME280;1347;42.122;24.746;2024-02-15T01:19:25;99869.44;;;8.30;72.01
2675;BME280;1347;42.122;24.746;2024-02-15T01:21:53;99879.81;;;8.24;72.24
2675;BME280;1347;42.122;24.746;2024-02-15T01:24:20;99884.69;;;8.31;72.33
2675;BME280;1347;42.122;24.746;2024-02-15T01:26:47;99882.97;;;8.26;72.18
2675;BME280;1347;42.122;24.746;2024-02-15T01:29:14;99878.91;;;8.20;72.13
2675;BME280;1347;42.122;24.746;2024-02-15T01:31:42;99877.31;;;8.19;72.27
2675;BME280;1347;42.122;24.746;2024-02-15T01:34:10;99879.00;;;8.24;72.25
2675;BME280;1347;42.122;24.746;2024-02-15T01:36:36;99880.50;;;8.21;72.67
2675;BME280;1347;42.122;24.746;2024-02-15T01:39:05;99880.38;;;8.18;73.10
2675;BME280;1347;42.122;24.746;2024-02-15T01:41:31;99882.66;;;8.16;73.10
2675;BME280;1347;42.122;24.746;2024-02-15T01:43:58;99882.78;;;8.07;72.79
2675;BME280;1347;42.122;24.746;2024-02-15T01:46:25;99878.56;;;8.09;72.73
2675;BME280;1347;42.122;24.746;2024-02-15T01:48:53;99886.31;;;8.07;72.99
2675;BME280;1347;42.122;24.746;2024-02-15T01:51:23;99894.03;;;8.05;72.93
2675;BME280;1347;42.122;24.746;2024-02-15T01:53:53;99901.09;;;8.06;72.94
2675;BME280;1347;42.122;24.746;2024-02-15T01:56:22;99893.94;;;8.02;73.44
2675;BME280;1347;42.122;24.746;2024-02-15T01:58:51;99893.72;;;7.95;73.71
2675;BME280;1347;42.122;24.746;2024-02-15T02:01:18;99892.56;;;7.96;73.10
2675;BME280;1347;42.122;24.746;2024-02-15T02:03:45;99884.63;;;7.91;73.30
2675;BME280;1347;42.122;24.746;2024-02-15T02:06:12;99897.59;;;7.82;73.59
2675;BME280;1347;42.122;24.746;2024-02-15T02:08:40;99894.41;;;7.92;73.05
2675;BME280;1347;42.122;24.746;2024-02-15T02:11:07;99896.47;;;7.83;73.16
2675;BME280;1347;42.122;24.746;2024-02-15T02:13:36;99899.53;;;7.81;73.44
2675;BME280;1347;42.122;24.746;2024-02-15T02:16:03;99894.63;;;7.74;73.31
2675;BME280;1347;42.122;24.746;2024-02-15T02:18:30;99885.09;;;7.68;73.74
2675;BME280;1347;42.122;24.746;2024-02-15T02:20:57;99888.16;;;7.67;73.52
2675;BME280;1347;42.122;24.746;2024-02-15T02:23:26;99901.44;;;7.56;73.73
2675;BME280;1347;42.122;24.746;2024-02-15T02:25:57;99903.97;;;7.61;73.24
2675;BME280;1347;42.122;24.746;2024-02-15T02:28:23;99902.38;;;7.60;73.54
2675;BME280;1347;42.122;24.746;2024-02-15T02:30:51;99906.56;;;7.58;74.26
2675;BME280;1347;42.122;24.746;2024-02-15T02:33:18;99905.63;;;7.54;74.30
2675;BME280;1347;42.122;24.746;2024-02-15T02:35:47;99909.59;;;7.44;73.64
2675;BME280;1347;42.122;24.746;2024-02-15T02:38:14;99912.47;;;7.48;74.46
2675;BME280;1347;42.122;24.746;2024-02-15T02:40:41;99913.94;;;7.45;74.53
2675;BME280;1347;42.122;24.746;2024-02-15T02:43:09;99912.94;;;7.50;74.19
2675;BME280;1347;42.122;24.746;2024-02-15T02:45:37;99913.59;;;7.47;74.12
2675;BME280;1347;42.122;24.746;2024-02-15T02:48:04;99923.94;;;7.41;74.78
2675;BME280;1347;42.122;24.746;2024-02-15T02:50:32;99918.34;;;7.37;74.75
2675;BME280;1347;42.122;24.746;2024-02-15T02:52:59;99913.69;;;7.38;74.66
2675;BME280;1347;42.122;24.746;2024-02-15T02:55:26;99921.09;;;7.37;74.79
2675;BME280;1347;42.122;24.746;2024-02-15T02:57:53;99921.88;;;7.38;75.01
2675;BME280;1347;42.122;24.746;2024-02-15T03:00:22;99913.38;;;7.39;74.64
2675;BME280;1347;42.122;24.746;2024-02-15T03:02:49;99921.09;;;7.37;74.71
2675;BME280;1347;42.122;24.746;2024-02-15T03:05:16;99918.34;;;7.37;74.77
2675;BME280;1347;42.122;24.746;2024-02-15T03:07:46;99909.59;;;7.32;74.95
2675;BME280;1347;42.122;24.746;2024-02-15T03:10:13;99912.09;;;7.37;74.48
2675;BME280;1347;42.122;24.746;2024-02-15T03:12:40;99899.03;;;7.30;74.87
2675;BME280;1347;42.122;24.746;2024-02-15T03:15:13;99901.75;;;7.30;75.04
2675;BME280;1347;42.122;24.746;2024-02-15T03:17:42;99920.38;;;7.28;74.61
2675;BME280;1347;42.122;24.746;2024-02-15T03:20:10;99918.66;;;7.24;74.81
2675;BME280;1347;42.122;24.746;2024-02-15T03:22:47;99917.53;;;7.25;74.57
2675;BME280;1347;42.122;24.746;2024-02-15T03:25:17;99925.38;;;7.26;74.76
2675;BME280;1347;42.122;24.746;2024-02-15T03:27:43;99925.41;;;7.38;74.26
2675;BME280;1347;42.122;24.746;2024-02-15T03:30:11;99924.47;;;7.34;74.74
2675;BME280;1347;42.122;24.746;2024-02-15T03:32:40;99925.50;;;7.30;74.12
2675;BME280;1347;42.122;24.746;2024-02-15T03:35:08;99918.81;;;7.39;74.58
2675;BME280;1347;42.122;24.746;2024-02-15T03:37:40;99901.88;;;7.34;74.27
2675;BME280;1347;42.122;24.746;2024-02-15T03:40:08;99910.31;;;7.41;73.91
2675;BME280;1347;42.122;24.746;2024-02-15T03:42:35;99927.34;;;7.38;73.65
2675;BME280;1347;42.122;24.746;2024-02-15T03:45:06;99914.03;;;7.36;74.02
2675;BME280;1347;42.122;24.746;2024-02-15T03:47:40;99921.88;;;7.38;74.14
2675;BME280;1347;42.122;24.746;2024-02-15T03:50:09;99925.16;;;7.44;73.64
2675;BME280;1347;42.122;24.746;2024-02-15T03:52:36;99927.69;;;7.49;73.20
2675;BME280;1347;42.122;24.746;2024-02-15T03:55:04;99917.34;;;7.42;73.89
2675;BME280;1347;42.122;24.746;2024-02-15T03:57:32;99923.94;;;7.53;73.10
2675;BME280;1347;42.122;24.746;2024-02-15T04:00:00;99926.78;;;7.57;73.44
2675;BME280;1347;42.122;24.746;2024-02-15T04:02:27;99926.13;;;7.60;73.43
2675;BME280;1347;42.122;24.746;2024-02-15T04:04:57;99929.66;;;7.60;73.61
2675;BME280;1347;42.122;24.746;2024-02-15T04:07:23;99929.97;;;7.59;74.07
2675;BME280;1347;42.122;24.746;2024-02-15T04:09:52;99925.00;;;7.61;73.00
2675;BME280;1347;42.122;24.746;2024-02-15T04:12:19;99933.19;;;7.61;72.67
2675;BME280;1347;42.122;24.746;2024-02-15T04:14:47;99931.47;;;7.68;72.56
2675;BME280;1347;42.122;24.746;2024-02-15T04:17:14;99933.28;;;7.64;72.44
2675;BME280;1347;42.122;24.746;2024-02-15T04:19:43;99932.38;;;7.60;72.19
2675;BME280;1347;42.122;24.746;2024-02-15T04:22:13;99931.69;;;7.63;72.10
2675;BME280;1347;42.122;24.746;2024-02-15T04:24:41;99918.75;;;7.60;72.46
2675;BME280;1347;42.122;24.746;2024-02-15T04:27:08;99935.78;;;7.57;72.76
2675;BME280;1347;42.122;24.746;2024-02-15T04:29:37;99937.69;;;7.57;73.23
2675;BME280;1347;42.122;24.746;2024-02-15T04:32:06;99931.13;;;7.58;73.31
2675;BME280;1347;42.122;24.746;2024-02-15T04:34:34;99940.31;;;7.65;73.43
2675;BME280;1347;42.122;24.746;2024-02-15T04:37:01;99932.13;;;7.53;72.57
2675;BME280;1347;42.122;24.746;2024-02-15T04:39:33;99945.31;;;7.51;72.53
2675;BME280;1347;42.122;24.746;2024-02-15T04:42:01;99938.94;;;7.47;73.34
2675;BME280;1347;42.122;24.746;2024-02-15T04:44:28;99940.44;;;7.57;73.02
2675;BME280;1347;42.122;24.746;2024-02-15T04:46:55;99942.94;;;7.50;73.46
2675;BME280;1347;42.122;24.746;2024-02-15T04:49:24;99948.91;;;7.43;73.93
2675;BME280;1347;42.122;24.746;2024-02-15T04:51:51;99943.13;;;7.45;73.42
2675;BME280;1347;42.122;24.746;2024-02-15T04:54:19;99949.50;;;7.49;72.73
2675;BME280;1347;42.122;24.746;2024-02-15T04:56:48;99943.25;;;7.48;73.14
2675;BME280;1347;42.122;24.746;2024-02-15T04:59:18;99946.56;;;7.54;72.98
2675;BME280;1347;42.122;24.746;2024-02-15T05:01:46;99957.47;;;7.54;72.75
2675;BME280;1347;42.122;24.746;2024-02-15T05:04:14;99954.88;;;7.57;72.82
2675;BME280;1347;42.122;24.746;2024-02-15T05:06:41;99953.19;;;7.53;73.10
2675;BME280;1347;42.122;24.746;2024-02-15T05:09:08;99953.19;;;7.53;72.78
2675;BME280;1347;42.122;24.746;2024-02-15T05:11:36;99951.22;;;7.41;73.36
2675;BME280;1347;42.122;24.746;2024-02-15T05:14:08;99951.13;;;7.50;73.38
2675;BME280;1347;42.122;24.746;2024-02-15T05:16:36;99954.97;;;7.49;72.81
2675;BME280;1347;42.122;24.746;2024-02-15T05:19:07;99953.84;;;7.50;73.27
2675;BME280;1347;42.122;24.746;2024-02-15T05:21:34;99964.97;;;7.57;72.73
2675;BME280;1347;42.122;24.746;2024-02-15T05:24:01;99964.41;;;7.63;72.40
2675;BME280;1347;42.122;24.746;2024-02-15T05:26:28;99963.38;;;7.56;73.13
2675;BME280;1347;42.122;24.746;2024-02-15T05:28:55;99967.28;;;7.67;72.62
2675;BME280;1347;42.122;24.746;2024-02-15T05:31:23;99957.03;;;7.64;72.41
2675;BME280;1347;42.122;24.746;2024-02-15T05:33:51;99973.41;;;7.64;72.87
2675;BME280;1347;42.122;24.746;2024-02-15T05:36:20;99975.34;;;7.63;72.72
2675;BME280;1347;42.122;24.746;2024-02-15T05:38:49;99973.50;;;7.55;73.15
2675;BME280;1347;42.122;24.746;2024-02-15T05:41:16;99981.38;;;7.69;72.48
2675;BME280;1347;42.122;24.746;2024-02-15T05:43:45;99982.19;;;7.69;72.11
2675;BME280;1347;42.122;24.746;2024-02-15T05:46:12;99978.22;;;7.79;72.40
2675;BME280;1347;42.122;24.746;2024-02-15T05:48:40;99973.09;;;7.78;72.28
2675;BME280;1347;42.122;24.746;2024-02-15T05:51:08;99987.88;;;7.89;71.72
2675;BME280;1347;42.122;24.746;2024-02-15T05:53:35;99993.00;;;7.90;71.46
2675;BME280;1347;42.122;24.746;2024-02-15T05:56:02;99986.63;;;7.86;71.70
2675;BME280;1347;42.122;24.746;2024-02-15T05:58:31;99994.50;;;8.00;71.18
2675;BME280;1347;42.122;24.746;2024-02-15T06:00:58;99996.19;;;8.04;71.29
2675;BME280;1347;42.122;24.746;2024-02-15T06:03:27;99983.00;;;8.06;71.17
2675;BME280;1347;42.122;24.746;2024-02-15T06:05:55;99987.91;;;8.01;71.38
2675;BME280;1347;42.122;24.746;2024-02-15T06:08:24;100004.75;;;8.03;71.48
2675;BME280;1347;42.122;24.746;2024-02-15T06:10:51;100014.75;;;7.99;71.44
2675;BME280;1347;42.122;24.746;2024-02-15T06:13:18;100007.34;;;7.99;70.90
2675;BME280;1347;42.122;24.746;2024-02-15T06:15:45;100021.34;;;7.98;71.23
2675;BME280;1347;42.122;24.746;2024-02-15T06:18:12;100011.34;;;8.02;71.51
2675;BME280;1347;42.122;24.746;2024-02-15T06:20:40;100022.25;;;7.90;71.56
2675;BME280;1347;42.122;24.746;2024-02-15T06:23:09;100020.00;;;8.04;71.80
2675;BME280;1347;42.122;24.746;2024-02-15T06:25:36;100026.91;;;8.01;71.75
2675;BME280;1347;42.122;24.746;2024-02-15T06:28:03;100020.09;;;8.07;71.43
2675;BME280;1347;42.122;24.746;2024-02-15T06:30:39;100019.19;;;8.16;71.37
2675;BME280;1347;42.122;24.746;2024-02-15T06:33:23;100028.41;;;8.11;70.73
2675;BME280;1347;42.122;24.746;2024-02-15T06:36:08;100022.28;;;8.14;70.56
2675;BME280;1347;42.122;24.746;2024-02-15T06:39:05;100023.03;;;8.14;70.59
2675;BME280;1347;42.122;24.746;2024-02-15T06:41:49;100031.16;;;8.23;70.51
2675;BME280;1347;42.122;24.746;2024-02-15T06:44:16;100031.34;;;8.18;70.47
2675;BME280;1347;42.122;24.746;2024-02-15T06:46:43;100041.06;;;8.40;70.46
2675;BME280;1347;42.122;24.746;2024-02-15T06:49:11;100045.81;;;8.31;70.31
2675;BME280;1347;42.122;24.746;2024-02-15T06:51:38;100043.69;;;8.36;70.29
2675;BME280;1347;42.122;24.746;2024-02-15T06:54:06;100041.88;;;8.40;70.12
2675;BME280;1347;42.122;24.746;2024-02-15T06:56:36;100038.22;;;8.48;69.66
2675;BME280;1347;42.122;24.746;2024-02-15T06:59:04;100043.56;;;8.45;70.19
2675;BME280;1347;42.122;24.746;2024-02-15T07:01:32;100049.16;;;8.48;70.29
2675;BME280;1347;42.122;24.746;2024-02-15T07:04:00;100041.63;;;8.58;69.43
2675;BME280;1347;42.122;24.746;2024-02-15T07:06:28;100047.34;;;8.53;69.59
2675;BME280;1347;42.122;24.746;2024-02-15T07:08:57;100053.47;;;8.62;69.56
2675;BME280;1347;42.122;24.746;2024-02-15T07:11:25;100051.16;;;8.76;69.48
2675;BME280;1347;42.122;24.746;2024-02-15T07:13:53;100046.72;;;8.83;69.42
2675;BME280;1347;42.122;24.746;2024-02-15T07:16:20;100041.22;;;8.96;67.81
2675;BME280;1347;42.122;24.746;2024-02-15T07:18:47;100051.31;;;9.07;67.94
2675;BME280;1347;42.122;24.746;2024-02-15T07:21:14;100050.94;;;9.21;68.03
2675;BME280;1347;42.122;24.746;2024-02-15T07:23:42;100049.84;;;9.38;66.30
2675;BME280;1347;42.122;24.746;2024-02-15T07:26:09;100056.97;;;9.54;65.76
2675;BME280;1347;42.122;24.746;2024-02-15T07:28:39;100058.09;;;9.81;65.50
2675;BME280;1347;42.122;24.746;2024-02-15T07:31:06;100051.03;;;9.80;65.28
2675;BME280;1347;42.122;24.746;2024-02-15T07:33:33;100058.72;;;9.90;64.66
2675;BME280;1347;42.122;24.746;2024-02-15T07:36:00;100053.00;;;9.95;64.92
2675;BME280;1347;42.122;24.746;2024-02-15T07:38:27;100060.06;;;9.96;64.20
2675;BME280;1347;42.122;24.746;2024-02-15T07:40:55;100054.59;;;10.12;63.86
2675;BME280;1347;42.122;24.746;2024-02-15T07:43:22;100065.72;;;10.51;62.82
2675;BME280;1347;42.122;24.746;2024-02-15T07:45:50;100055.00;;;10.77;61.08
2675;BME280;1347;42.122;24.746;2024-02-15T07:48:17;100051.38;;;10.73;61.35
2675;BME280;1347;42.122;24.746;2024-02-15T07:50:44;100062.59;;;10.84;61.64
2675;BME280;1347;42.122;24.746;2024-02-15T07:53:11;100066.25;;;11.26;60.94
2675;BME280;1347;42.122;24.746;2024-02-15T07:55:39;100076.47;;;12.29;58.48
2675;BME280;1347;42.122;24.746;2024-02-15T07:58:06;100051.13;;;13.52;53.61
2675;BME280;1347;42.122;24.746;2024-02-15T08:00:33;100056.84;;;14.58;50.80
2675;BME280;1347;42.122;24.746;2024-02-15T08:03:02;100064.50;;;14.79;48.93
2675;BME280;1347;42.122;24.746;2024-02-15T08:05:29;100065.56;;;15.29;46.73
2675;BME280;1347;42.122;24.746;2024-02-15T08:07:56;100075.72;;;15.97;45.74
2675;BME280;1347;42.122;24.746;2024-02-15T08:10:23;100069.44;;;16.64;43.33
2675;BME280;1347;42.122;24.746;2024-02-15T08:12:49;100068.56;;;17.13;42.51
2675;BME280;1347;42.122;24.746;2024-02-15T08:15:18;100066.66;;;17.90;41.28
2675;BME280;1347;42.122;24.746;2024-02-15T08:17:45;100058.97;;;18.12;39.76
2675;BME280;1347;42.122;24.746;2024-02-15T08:20:14;100079.81;;;18.86;38.78
2675;BME280;1347;42.122;24.746;2024-02-15T08:22:46;100076.91;;;19.00;37.16
2675;BME280;1347;42.122;24.746;2024-02-15T08:25:14;100073.06;;;19.59;36.84
2675;BME280;1347;42.122;24.746;2024-02-15T08:27:42;100084.44;;;19.34;36.60
2675;BME280;1347;42.122;24.746;2024-02-15T08:30:10;100077.09;;;19.54;36.13
2675;BME280;1347;42.122;24.746;2024-02-15T08:32:37;100079.94;;;20.08;36.44
2675;BME280;1347;42.122;24.746;2024-02-15T08:35:05;100076.19;;;19.64;36.35
2675;BME280;1347;42.122;24.746;2024-02-15T08:37:35;100075.78;;;19.93;35.07
2675;BME280;1347;42.122;24.746;2024-02-15T08:40:04;100080.50;;;20.49;35.01
2675;BME280;1347;42.122;24.746;2024-02-15T08:42:36;100075.97;;;20.59;33.75
2675;BME280;1347;42.122;24.746;2024-02-15T08:45:04;100079.88;;;20.38;34.60
2675;BME280;1347;42.122;24.746;2024-02-15T08:47:34;100077.63;;;20.30;34.47
2675;BME280;1347;42.122;24.746;2024-02-15T08:50:03;100075.00;;;20.92;33.56
2675;BME280;1347;42.122;24.746;2024-02-15T08:52:30;100075.16;;;20.08;34.52
2675;BME280;1347;42.122;24.746;2024-02-15T08:54:58;100081.94;;;21.47;33.24
2675;BME280;1347;42.122;24.746;2024-02-15T08:57:26;100078.91;;;22.14;32.72
2675;BME280;1347;42.122;24.746;2024-02-15T08:59:53;100083.97;;;22.35;31.73
2675;BME280;1347;42.122;24.746;2024-02-15T09:02:20;100084.75;;;22.52;32.27
2675;BME280;1347;42.122;24.746;2024-02-15T09:04:47;100072.69;;;22.06;32.48
2675;BME280;1347;42.122;24.746;2024-02-15T09:07:14;100073.56;;;22.03;32.38
2675;BME280;1347;42.122;24.746;2024-02-15T09:09:41;100078.75;;;21.65;33.00
2675;BME280;1347;42.122;24.746;2024-02-15T09:12:09;100074.28;;;22.07;32.53
2675;BME280;1347;42.122;24.746;2024-02-15T09:14:38;100081.81;;;22.59;31.88
2675;BME280;1347;42.122;24.746;2024-02-15T09:17:05;100064.81;;;22.01;32.81
2675;BME280;1347;42.122;24.746;2024-02-15T09:19:33;100070.00;;;22.35;31.99
2675;BME280;1347;42.122;24.746;2024-02-15T09:22:00;100072.97;;;21.92;32.43
2675;BME280;1347;42.122;24.746;2024-02-15T09:24:27;100066.63;;;21.55;32.94
2675;BME280;1347;42.122;24.746;2024-02-15T09:26:54;100068.53;;;21.58;32.33
2675;BME280;1347;42.122;24.746;2024-02-15T09:29:22;100057.06;;;21.73;32.86
2675;BME280;1347;42.122;24.746;2024-02-15T09:31:50;100056.81;;;21.27;32.53
2675;BME280;1347;42.122;24.746;2024-02-15T09:34:18;100051.38;;;21.20;33.11
2675;BME280;1347;42.122;24.746;2024-02-15T09:36:45;100040.34;;;21.13;33.41
2675;BME280;1347;42.122;24.746;2024-02-15T09:39:11;100046.69;;;22.09;32.35
2675;BME280;1347;42.122;24.746;2024-02-15T09:41:40;100041.97;;;21.70;32.84
2675;BME280;1347;42.122;24.746;2024-02-15T09:44:08;100042.50;;;22.50;32.22
2675;BME280;1347;42.122;24.746;2024-02-15T09:46:42;100046.66;;;22.90;31.44
2675;BME280;1347;42.122;24.746;2024-02-15T09:49:11;100032.63;;;22.61;31.74
2675;BME280;1347;42.122;24.746;2024-02-15T09:51:40;100033.59;;;22.06;32.04
2675;BME280;1347;42.122;24.746;2024-02-15T09:54:08;100028.66;;;21.78;31.71
2675;BME280;1347;42.122;24.746;2024-02-15T09:56:36;100022.13;;;19.92;34.32
2675;BME280;1347;42.122;24.746;2024-02-15T09:59:04;100021.88;;;21.00;33.45
2675;BME280;1347;42.122;24.746;2024-02-15T10:01:37;100020.09;;;21.09;33.00
2675;BME280;1347;42.122;24.746;2024-02-15T10:04:06;100014.50;;;20.89;33.14
2675;BME280;1347;42.122;24.746;2024-02-15T10:06:35;100015.47;;;20.36;33.55
2675;BME280;1347;42.122;24.746;2024-02-15T10:09:26;100011.00;;;20.66;33.94
2675;BME280;1347;42.122;24.746;2024-02-15T10:11:55;100006.69;;;20.38;34.45
2675;BME280;1347;42.122;24.746;2024-02-15T10:14:23;100005.72;;;20.91;34.39
2675;BME280;1347;42.122;24.746;2024-02-15T10:16:52;99992.00;;;20.37;34.55
2675;BME280;1347;42.122;24.746;2024-02-15T10:19:20;99993.88;;;20.44;35.12
2675;BME280;1347;42.122;24.746;2024-02-15T10:21:51;99991.53;;;21.25;34.22
2675;BME280;1347;42.122;24.746;2024-02-15T10:24:23;99987.03;;;21.31;33.03
2675;BME280;1347;42.122;24.746;2024-02-15T10:26:50;99986.84;;;20.99;33.92
2675;BME280;1347;42.122;24.746;2024-02-15T10:29:19;99981.81;;;20.50;34.23
2675;BME280;1347;42.122;24.746;2024-02-15T10:31:54;99969.28;;;21.02;33.91
2675;BME280;1347;42.122;24.746;2024-02-15T10:34:22;99980.66;;;20.91;33.75
2675;BME280;1347;42.122;24.746;2024-02-15T10:36:50;99969.06;;;20.26;35.39
2675;BME280;1347;42.122;24.746;2024-02-15T10:39:19;99977.13;;;20.67;34.68
2675;BME280;1347;42.122;24.746;2024-02-15T10:41:48;99962.38;;;20.00;35.25
2675;BME280;1347;42.122;24.746;2024-02-15T10:44:16;99954.94;;;20.40;35.02
2675;BME280;1347;42.122;24.746;2024-02-15T10:46:47;99963.28;;;20.64;34.90
2675;BME280;1347;42.122;24.746;2024-02-15T10:49:18;99964.19;;;20.77;34.76
2675;BME280;1347;42.122;24.746;2024-02-15T10:51:52;99956.28;;;20.75;34.35
2675;BME280;1347;42.122;24.746;2024-02-15T10:54:43;99955.78;;;21.00;34.46
2675;BME280;1347;42.122;24.746;2024-02-15T10:57:15;99950.63;;;20.59;34.89
2675;BME280;1347;42.122;24.746;2024-02-15T10:59:54;99955.28;;;21.25;33.93
2675;BME280;1347;42.122;24.746;2024-02-15T11:02:27;99948.69;;;21.15;33.48
2675;BME280;1347;42.122;24.746;2024-02-15T11:05:03;99940.53;;;20.22;34.38
2675;BME280;1347;42.122;24.746;2024-02-15T11:07:36;99931.94;;;20.36;34.46
2675;BME280;1347;42.122;24.746;2024-02-15T11:10:05;99942.19;;;20.63;34.61
2675;BME280;1347;42.122;24.746;2024-02-15T11:12:33;99934.63;;;20.43;34.49
2675;BME280;1347;42.122;24.746;2024-02-15T11:15:01;99922.91;;;20.72;34.31
2675;BME280;1347;42.122;24.746;2024-02-15T11:17:48;99931.44;;;20.65;33.62
2675;BME280;1347;42.122;24.746;2024-02-15T11:20:48;99925.72;;;20.72;35.01
2675;BME280;1347;42.122;24.746;2024-02-15T11:23:24;99903.13;;;20.66;34.11
2675;BME280;1347;42.122;24.746;2024-02-15T11:25:52;99926.97;;;20.87;33.71
2675;BME280;1347;42.122;24.746;2024-02-15T11:28:37;99904.81;;;21.19;33.86
2675;BME280;1347;42.122;24.746;2024-02-15T11:31:09;99909.53;;;21.03;33.30
2675;BME280;1347;42.122;24.746;2024-02-15T11:33:38;99903.25;;;20.59;34.04
2675;BME280;1347;42.122;24.746;2024-02-15T11:36:07;99900.13;;;20.77;34.79
2675;BME280;1347;42.122;24.746;2024-02-15T11:38:35;99898.91;;;20.58;34.77
2675;BME280;1347;42.122;24.746;2024-02-15T11:41:07;99899.59;;;21.21;34.23
2675;BME280;1347;42.122;24.746;2024-02-15T11:43:46;99895.91;;;20.88;33.74
2675;BME280;1347;42.122;24.746;2024-02-15T11:46:15;99899.91;;;20.68;33.79
2675;BME280;1347;42.122;24.746;2024-02-15T11:48:43;99891.44;;;19.85;35.35
2675;BME280;1347;42.122;24.746;2024-02-15T11:51:33;99890.84;;;19.20;36.31
2675;BME280;1347;42.122;24.746;2024-02-15T11:54:09;99893.78;;;18.79;37.02
2675;BME280;1347;42.122;24.746;2024-02-15T11:57:04;99885.72;;;18.58;37.07
2675;BME280;1347;42.122;24.746;2024-02-15T11:59:40;99885.88;;;18.40;37.79
2675;BME280;1347;42.122;24.746;2024-02-15T12:02:19;99886.41;;;18.28;37.46
2675;BME280;1347;42.122;24.746;2024-02-15T12:05:04;99883.75;;;18.89;36.81
2675;BME280;1347;42.122;24.746;2024-02-15T12:07:55;99877.25;;;19.26;36.25
2675;BME280;1347;42.122;24.746;2024-02-15T12:10:40;99879.06;;;20.13;35.40
2675;BME280;1347;42.122;24.746;2024-02-15T12:13:32;99881.44;;;20.34;33.92
2675;BME280;1347;42.122;24.746;2024-02-15T12:16:17;99880.41;;;20.68;34.11
2675;BME280;1347;42.122;24.746;2024-02-15T12:19:02;99873.13;;;20.74;34.07
2675;BME280;1347;42.122;24.746;2024-02-15T12:21:29;99874.00;;;20.28;34.23
2675;BME280;1347;42.122;24.746;2024-02-15T12:23:58;99868.69;;;20.56;34.62
2675;BME280;1347;42.122;24.746;2024-02-15T12:26:24;99874.97;;;20.61;34.68
2675;BME280;1347;42.122;24.746;2024-02-15T12:28:53;99872.13;;;20.44;33.88
2675;BME280;1347;42.122;24.746;2024-02-15T12:31:21;99877.19;;;20.69;33.78
2675;BME280;1347;42.122;24.746;2024-02-15T12:34:00;99872.09;;;21.72;32.38
2675;BME280;1347;42.122;24.746;2024-02-15T12:36:28;99867.47;;;22.43;31.88
2675;BME280;1347;42.122;24.746;2024-02-15T12:39:03;99862.97;;;22.74;31.34
2675;BME280;1347;42.122;24.746;2024-02-15T12:41:36;99871.19;;;22.82;31.38
2675;BME280;1347;42.122;24.746;2024-02-15T12:44:05;99865.03;;;22.16;31.51
2675;BME280;1347;42.122;24.746;2024-02-15T12:46:33;99867.03;;;21.83;31.59
2675;BME280;1347;42.122;24.746;2024-02-15T12:49:13;99862.16;;;21.39;31.91
2675;BME280;1347;42.122;24.746;2024-02-15T12:52:33;99867.34;;;21.20;32.80
2675;BME280;1347;42.122;24.746;2024-02-15T12:55:11;99865.31;;;21.73;32.04
2675;BME280;1347;42.122;24.746;2024-02-15T12:57:39;99859.97;;;21.30;32.55
2675;BME280;1347;42.122;24.746;2024-02-15T13:00:09;99857.03;;;21.53;32.06
2675;BME280;1347;42.122;24.746;2024-02-15T13:02:44;99850.72;;;21.49;32.03
2675;BME280;1347;42.122;24.746;2024-02-15T13:05:14;99864.09;;;21.74;32.07
2675;BME280;1347;42.122;24.746;2024-02-15T13:07:46;99863.91;;;21.49;32.98
2675;BME280;1347;42.122;24.746;2024-02-15T13:10:14;99861.38;;;21.54;32.71
2675;BME280;1347;42.122;24.746;2024-02-15T13:12:42;99856.91;;;21.41;32.66
2675;BME280;1347;42.122;24.746;2024-02-15T13:15:10;99853.97;;;21.12;33.85
2675;BME280;1347;42.122;24.746;2024-02-15T13:17:42;99856.84;;;21.08;33.54
2675;BME280;1347;42.122;24.746;2024-02-15T13:20:10;99853.84;;;20.63;33.22
2675;BME280;1347;42.122;24.746;2024-02-15T13:22:39;99852.09;;;20.30;33.64
2675;BME280;1347;42.122;24.746;2024-02-15T13:25:07;99853.59;;;20.14;34.34
2675;BME280;1347;42.122;24.746;2024-02-15T13:27:36;99855.78;;;19.80;34.55